Time;durP1;ratioP1;P1;durP2;ratioP2;P2;SDS_P1;SDS_P2;PMS_P1;PMS_P2;Temp;Humidity;BMP_temperature;BMP_pressure;BME280_temperature;BME280_humidity;BME280_pressure;Samples;Min_cycle;Max_cycle;Signal;HPM_P1;HPM_P2
2023/06/17 00:00:24;;;;;;;;;;;;;;;12.38;100.00;101432.63;10521122;28;20023;-79
2023/06/17 00:05:27;;;;;;;;;;;;;;;12.28;100.00;101432.16;10507076;28;20356;-79
2023/06/17 00:10:27;;;;;;;;;;;;;;;12.21;100.00;101439.66;10489485;28;20379;-79
2023/06/17 00:15:32;;;;;;;;;;;;;;;12.07;100.00;101442.50;10517769;28;19921;-79
2023/06/17 00:20:36;;;;;;;;;;;;;;;11.90;100.00;101434.63;10523820;28;19973;-79
2023/06/17 00:25:36;;;;;;;;;;;;;;;11.81;100.00;101439.41;10519373;28;19920;-78
2023/06/17 00:30:38;;;;;;;;;;;;;;;11.73;100.00;101436.38;10505984;28;19959;-78
2023/06/17 00:35:38;;;;;;;;;;;;;;;11.60;100.00;101429.59;10507348;28;20010;-80
2023/06/17 00:40:38;;;;;;;;;;;;;;;11.43;100.00;101431.31;10503929;28;19924;-79
2023/06/17 00:45:39;;;;;;;;;;;;;;;11.25;100.00;101430.34;10524033;28;19920;-80
2023/06/17 00:50:39;;;;;;;;;;;;;;;11.09;100.00;101428.63;10508909;28;20034;-79
2023/06/17 00:55:39;;;;;;;;;;;;;;;11.05;100.00;101430.16;10503810;28;19927;-79
2023/06/17 01:00:40;;;;;;;;;;;;;;;11.06;100.00;101429.34;10513056;28;20371;-79
2023/06/17 01:05:40;;;;;;;;;;;;;;;11.07;100.00;101427.63;10522835;28;19920;-79
2023/06/17 01:10:59;;;;;;;;;;;;;;;10.98;100.00;101426.31;10512323;28;19931;-79
2023/06/17 01:16:00;;;;;;;;;;;;;;;10.84;100.00;101429.88;10493274;28;20011;-78
2023/06/17 01:21:03;;;;;;;;;;;;;;;10.72;100.00;101433.63;10516082;28;19965;-79
2023/06/17 01:26:04;;;;;;;;;;;;;;;10.76;100.00;101433.78;10523852;28;19920;-80
2023/06/17 01:31:04;;;;;;;;;;;;;;;10.79;100.00;101445.31;10529878;28;20278;-78
2023/06/17 01:36:06;;;;;;;;;;;;;;;10.83;100.00;101444.69;10470742;28;20011;-79
2023/06/17 01:41:08;;;;;;;;;;;;;;;10.89;100.00;101443.22;10539701;28;19973;-78
2023/06/17 01:46:09;;;;;;;;;;;;;;;10.86;100.00;101434.38;10512908;28;19924;-79
2023/06/17 01:51:09;;;;;;;;;;;;;;;10.76;100.00;101424.22;10511472;28;19916;-78
2023/06/17 01:56:10;;;;;;;;;;;;;;;10.61;100.00;101418.09;10511310;28;19988;-78
2023/06/17 02:01:10;;;;;;;;;;;;;;;10.47;100.00;101433.03;10519961;28;20007;-78
2023/06/17 02:06:10;;;;;;;;;;;;;;;10.34;100.00;101437.53;10485848;28;19924;-78
2023/06/17 02:11:11;;;;;;;;;;;;;;;10.20;100.00;101431.50;10493669;28;19959;-78
2023/06/17 02:16:11;;;;;;;;;;;;;;;10.16;100.00;101439.09;10514954;28;20003;-78
2023/06/17 02:21:12;;;;;;;;;;;;;;;10.10;100.00;101437.91;10510207;28;19926;-77
2023/06/17 02:26:12;;;;;;;;;;;;;;;10.00;100.00;101435.56;10526904;28;20355;-78
2023/06/17 02:31:12;;;;;;;;;;;;;;;9.83;100.00;101437.16;10532487;28;19927;-78
2023/06/17 02:36:14;;;;;;;;;;;;;;;9.81;100.00;101438.78;10485948;28;19965;-78
2023/06/17 02:41:14;;;;;;;;;;;;;;;9.64;100.00;101432.56;10499626;28;19928;-79
2023/06/17 02:46:15;;;;;;;;;;;;;;;9.52;100.00;101432.69;10527296;28;19924;-79
2023/06/17 02:51:16;;;;;;;;;;;;;;;9.47;100.00;101423.69;10543441;28;19923;-79
2023/06/17 02:56:16;;;;;;;;;;;;;;;9.38;100.00;101422.31;10507492;28;20337;-79
2023/06/17 03:01:16;;;;;;;;;;;;;;;9.42;100.00;101423.41;10526584;28;19924;-79
2023/06/17 03:06:18;;;;;;;;;;;;;;;9.32;100.00;101424.53;10490767;28;19923;-78
2023/06/17 03:11:19;;;;;;;;;;;;;;;9.24;100.00;101425.78;10526469;28;20011;-79
2023/06/17 03:16:19;;;;;;;;;;;;;;;9.18;100.00;101422.78;10524561;28;19920;-79
2023/06/17 03:21:20;;;;;;;;;;;;;;;9.11;100.00;101432.84;10491674;28;19924;-79
2023/06/17 03:26:23;;;;;;;;;;;;;;;9.09;100.00;101433.56;10524472;28;20364;-79
2023/06/17 03:31:23;;;;;;;;;;;;;;;9.07;100.00;101435.19;10506271;28;19920;-79
2023/06/17 03:36:29;;;;;;;;;;;;;;;9.06;100.00;101426.44;10504386;28;19923;-79
2023/06/17 03:41:30;;;;;;;;;;;;;;;9.13;100.00;101432.03;10489737;28;19981;-79
2023/06/17 03:46:30;;;;;;;;;;;;;;;9.15;100.00;101436.56;10483664;28;19969;-80
2023/06/17 03:51:31;;;;;;;;;;;;;;;9.18;100.00;101441.06;10515050;28;20348;-80
2023/06/17 03:56:31;;;;;;;;;;;;;;;9.17;100.00;101432.34;10483909;28;19924;-79
2023/06/17 04:01:31;;;;;;;;;;;;;;;9.28;100.00;101422.56;10466608;28;20280;-79
2023/06/17 04:06:32;;;;;;;;;;;;;;;9.40;100.00;101430.25;10482010;28;20355;-80
2023/06/17 04:11:32;;;;;;;;;;;;;;;9.50;100.00;101434.31;10512006;28;19920;-79
2023/06/17 04:16:35;;;;;;;;;;;;;;;9.58;100.00;101440.03;10487855;28;20014;-79
2023/06/17 04:21:35;;;;;;;;;;;;;;;9.74;100.00;101436.63;10480830;28;19920;-79
2023/06/17 04:26:36;;;;;;;;;;;;;;;10.13;100.00;101440.72;10507001;28;19924;-79
2023/06/17 04:31:40;;;;;;;;;;;;;;;10.62;100.00;101435.63;10492336;28;19920;-80
2023/06/17 04:36:41;;;;;;;;;;;;;;;11.06;100.00;101426.72;10513562;28;19931;-80
2023/06/17 04:41:45;;;;;;;;;;;;;;;11.46;100.00;101425.34;10484650;28;19920;-79
2023/06/17 04:46:48;;;;;;;;;;;;;;;11.93;100.00;101414.63;10490052;28;19951;-84
2023/06/17 04:51:48;;;;;;;;;;;;;;;12.37;100.00;101397.63;10506539;28;19920;-85
2023/06/17 04:56:51;;;;;;;;;;;;;;;12.66;100.00;101390.25;10532427;28;19920;-78
2023/06/17 05:01:51;;;;;;;;;;;;;;;12.81;100.00;101383.91;10499246;28;19930;-80
2023/06/17 05:06:51;;;;;;;;;;;;;;;13.44;100.00;101392.03;10530173;28;19926;-79
2023/06/17 05:11:52;;;;;;;;;;;;;;;14.00;100.00;101383.03;10510881;28;20061;-80
2023/06/17 05:16:52;;;;;;;;;;;;;;;14.59;100.00;101383.63;10531890;28;19920;-79
2023/06/17 05:21:53;;;;;;;;;;;;;;;15.20;100.00;101378.94;10502434;28;19928;-80
2023/06/17 05:26:53;;;;;;;;;;;;;;;15.79;100.00;101378.38;10492601;28;20290;-81
2023/06/17 05:31:53;;;;;;;;;;;;;;;16.21;100.00;101371.91;10528068;28;20031;-82
2023/06/17 05:36:54;;;;;;;;;;;;;;;17.28;100.00;101371.59;10523449;28;20046;-83
2023/06/17 05:41:54;;;;;;;;;;;;;;;18.37;100.00;101362.03;10529532;28;19921;-82
2023/06/17 05:46:55;;;;;;;;;;;;;;;19.24;100.00;101363.03;10509993;28;20495;-83
2023/06/17 05:51:55;;;;;;;;;;;;;;;20.10;100.00;101356.66;10512354;28;19969;-83
2023/06/17 05:56:55;;;;;;;;;;;;;;;20.93;100.00;101365.81;10515330;28;20384;-82
2023/06/17 06:01:56;;;;;;;;;;;;;;;21.85;100.00;101368.63;10516879;28;19959;-80
2023/06/17 06:06:56;;;;;;;;;;;;;;;22.69;93.64;101368.34;10500531;28;19924;-80
2023/06/17 06:11:56;;;;;;;;;;;;;;;23.61;74.44;101362.47;10515241;28;19942;-80
2023/06/17 06:16:57;;;;;;;;;;;;;;;24.46;66.21;101368.69;10516992;28;19968;-80
2023/06/17 06:21:57;;;;;;;;;;;;;;;24.73;62.61;101372.19;10506867;28;20011;-79
2023/06/17 06:26:57;;;;;;;;;;;;;;;25.45;58.57;101371.00;10491991;28;20162;-80
2023/06/17 06:31:58;;;;;;;;;;;;;;;26.57;57.03;101367.38;10502013;28;20014;-80
2023/06/17 06:36:58;;;;;;;;;;;;;;;26.68;53.41;101372.63;10487067;28;19920;-80
2023/06/17 06:41:58;;;;;;;;;;;;;;;27.09;49.08;101375.72;10485217;28;20012;-79
2023/06/17 06:46:59;;;;;;;;;;;;;;;27.15;49.44;101372.09;10516483;28;19919;-79
2023/06/17 06:51:59;;;;;;;;;;;;;;;27.03;48.65;101370.44;10497417;28;19927;-83
2023/06/17 06:57:00;;;;;;;;;;;;;;;27.70;48.58;101376.69;10501089;28;19943;-80
2023/06/17 07:02:00;;;;;;;;;;;;;;;27.25;48.32;101379.13;10526600;28;19927;-79
2023/06/17 07:07:02;;;;;;;;;;;;;;;28.39;49.21;101373.72;10515153;28;20370;-80
2023/06/17 07:12:03;;;;;;;;;;;;;;;29.88;41.43;101372.34;10518792;28;19920;-80
2023/06/17 07:17:03;;;;;;;;;;;;;;;29.16;42.00;101376.69;10513574;28;19921;-80
2023/06/17 07:22:04;;;;;;;;;;;;;;;29.60;41.70;101373.03;10457147;28;19927;-79
2023/06/17 07:27:04;;;;;;;;;;;;;;;30.16;38.58;101372.53;10477933;28;19981;-83
2023/06/17 07:32:05;;;;;;;;;;;;;;;30.58;37.60;101368.75;10465307;28;19921;-81
2023/06/17 07:37:05;;;;;;;;;;;;;;;31.85;35.14;101376.63;10460502;28;19921;-82
2023/06/17 07:42:06;;;;;;;;;;;;;;;31.05;36.99;101375.50;10443706;28;19921;-79
2023/06/17 07:47:06;;;;;;;;;;;;;;;30.94;36.86;101383.03;10471311;28;19921;-79
2023/06/17 07:52:18;;;;;;;;;;;;;;;30.91;37.37;101366.00;10483940;28;19921;-79
2023/06/17 07:57:22;;;;;;;;;;;;;;;31.38;31.38;101369.09;10464753;28;19923;-79
2023/06/17 08:02:22;;;;;;;;;;;;;;;31.86;35.15;101370.28;10480872;28;19924;-81
2023/06/17 08:07:23;;;;;;;;;;;;;;;31.97;31.50;101364.50;10480900;28;20368;-78
2023/06/17 08:12:23;;;;;;;;;;;;;;;32.20;31.50;101364.56;10483620;28;19917;-78
2023/06/17 08:17:23;;;;;;;;;;;;;;;32.29;31.00;101354.34;10502983;28;19920;-78
2023/06/17 08:22:24;;;;;;;;;;;;;;;32.29;28.67;101357.06;10524739;28;19932;-78
2023/06/17 08:27:24;;;;;;;;;;;;;;;32.60;28.73;101350.53;10505849;28;20291;-79
2023/06/17 08:32:24;;;;;;;;;;;;;;;32.84;26.68;101348.75;10497844;28;19917;-79
2023/06/17 08:37:25;;;;;;;;;;;;;;;32.91;30.37;101350.31;10488007;28;19920;-78
2023/06/17 08:42:26;;;;;;;;;;;;;;;33.39;26.59;101336.66;10524214;28;19920;-79
2023/06/17 08:47:27;;;;;;;;;;;;;;;32.34;26.94;101349.69;10523791;28;20261;-79
2023/06/17 08:52:27;;;;;;;;;;;;;;;33.31;26.98;101338.81;10505244;28;19920;-79
2023/06/17 08:57:27;;;;;;;;;;;;;;;32.66;29.32;101343.09;10514599;28;20356;-78
2023/06/17 09:02:28;;;;;;;;;;;;;;;33.34;30.47;101338.69;10506865;28;19916;-78
2023/06/17 09:07:28;;;;;;;;;;;;;;;34.38;26.92;101337.00;10521942;28;19932;-79
2023/06/17 09:12:34;;;;;;;;;;;;;;;33.88;26.48;101328.28;10507333;28;19920;-78
2023/06/17 09:17:36;;;;;;;;;;;;;;;33.97;26.06;101341.50;10530583;28;19970;-79
2023/06/17 09:22:42;;;;;;;;;;;;;;;34.20;26.12;101336.03;10500697;28;19927;-80
2023/06/17 09:27:45;;;;;;;;;;;;;;;33.83;25.81;101341.19;10512109;28;19959;-80
2023/06/17 09:32:46;;;;;;;;;;;;;;;33.91;27.68;101341.75;10528373;28;19920;-79
2023/06/17 09:37:52;;;;;;;;;;;;;;;34.34;28.91;101335.38;10530706;28;20033;-80
2023/06/17 09:42:53;;;;;;;;;;;;;;;34.43;26.58;101329.53;10494755;28;19920;-80
2023/06/17 09:47:53;;;;;;;;;;;;;;;33.97;28.84;101327.94;10512050;28;19931;-80
2023/06/17 09:52:55;;;;;;;;;;;;;;;33.59;28.73;101327.72;10498717;28;19920;-81
2023/06/17 09:57:56;;;;;;;;;;;;;;;34.04;27.01;101330.38;10512409;28;20436;-81
2023/06/17 10:02:56;;;;;;;;;;;;;;;34.73;27.76;101334.53;10509525;28;19920;-81
2023/06/17 10:07:56;;;;;;;;;;;;;;;35.50;26.44;101334.53;10527878;28;19931;-81
2023/06/17 10:12:57;;;;;;;;;;;;;;;35.24;29.19;101323.06;10511453;28;19939;-80
2023/06/17 10:17:57;;;;;;;;;;;;;;;35.39;27.41;101316.88;10509640;28;20368;-80
2023/06/17 10:22:58;;;;;;;;;;;;;;;35.57;27.73;101319.66;10490742;28;19920;-80
2023/06/17 10:28:00;;;;;;;;;;;;;;;33.94;28.85;101310.91;10531690;28;19943;-81
2023/06/17 10:33:01;;;;;;;;;;;;;;;33.75;32.06;101303.53;10505976;28;19955;-80
2023/06/17 10:38:02;;;;;;;;;;;;;;;34.67;28.67;101303.09;10469943;28;20007;-81
2023/06/17 10:43:02;;;;;;;;;;;;;;;35.51;25.02;101301.81;10508526;28;19920;-80
2023/06/17 10:48:16;;;;;;;;;;;;;;;34.56;26.15;101297.28;10527767;28;19923;-81
2023/06/17 10:53:16;;;;;;;;;;;;;;;35.16;26.93;101289.94;10492542;28;19923;-80
2023/06/17 10:58:17;;;;;;;;;;;;;;;35.64;24.31;101285.72;10526723;28;19916;-80
2023/06/17 11:03:17;;;;;;;;;;;;;;;35.35;25.97;101279.91;10526898;28;20015;-80
2023/06/17 11:08:17;;;;;;;;;;;;;;;34.99;25.00;101280.78;10524502;28;19972;-81
2023/06/17 11:13:21;;;;;;;;;;;;;;;35.51;23.00;101276.41;10507809;28;19973;-80
2023/06/17 11:18:22;;;;;;;;;;;;;;;35.96;25.70;101272.25;10523972;28;20291;-80
2023/06/17 11:23:22;;;;;;;;;;;;;;;36.04;24.22;101266.44;10525444;28;19920;-80
2023/06/17 11:28:22;;;;;;;;;;;;;;;35.55;23.49;101259.88;10515887;28;20302;-81
2023/06/17 11:33:23;;;;;;;;;;;;;;;34.89;26.87;101261.28;10548339;28;19923;-80
2023/06/17 11:38:24;;;;;;;;;;;;;;;35.52;24.13;101253.69;10567621;28;19922;-81
2023/06/17 11:43:28;;;;;;;;;;;;;;;34.52;25.15;101252.19;10530115;28;19924;-81
2023/06/17 11:48:28;;;;;;;;;;;;;;;35.43;24.06;101247.72;10506927;28;19922;-80
2023/06/17 11:53:38;;;;;;;;;;;;;;;35.95;25.25;101245.97;10481780;28;19927;-80
2023/06/17 11:58:39;;;;;;;;;;;;;;;35.62;25.51;101244.09;10525301;28;19920;-81
2023/06/17 12:03:45;;;;;;;;;;;;;;;35.85;25.27;101234.72;10489906;28;19961;-80
2023/06/17 12:08:55;;;;;;;;;;;;;;;36.15;24.06;101238.59;10503145;28;19931;-81
2023/06/17 12:13:55;;;;;;;;;;;;;;;35.80;24.96;101233.19;10506792;28;19969;-81
2023/06/17 12:18:55;;;;;;;;;;;;;;;35.71;23.64;101218.25;10524481;28;19964;-81
2023/06/17 12:23:56;;;;;;;;;;;;;;;35.79;25.08;101216.00;10503222;28;19927;-81
2023/06/17 12:28:56;;;;;;;;;;;;;;;34.31;24.72;101224.16;10493361;28;19978;-81
2023/06/17 12:33:57;;;;;;;;;;;;;;;34.61;25.98;101218.25;10502198;28;20291;-81
2023/06/17 12:39:00;;;;;;;;;;;;;;;34.47;26.00;101216.22;10522919;28;19920;-81
2023/06/17 12:44:00;;;;;;;;;;;;;;;34.59;25.81;101212.91;10522654;28;19920;-82
2023/06/17 12:49:01;;;;;;;;;;;;;;;34.54;23.50;101214.97;10527367;28;19916;-80
2023/06/17 12:54:01;;;;;;;;;;;;;;;34.41;24.97;101199.22;10537976;28;20383;-81
2023/06/17 12:59:04;;;;;;;;;;;;;;;35.22;22.69;101183.56;10529336;28;20389;-82
2023/06/17 13:04:04;;;;;;;;;;;;;;;34.32;24.59;101188.78;10512903;28;19920;-81
2023/06/17 13:09:05;;;;;;;;;;;;;;;33.80;27.71;101178.47;10529995;28;19920;-83
2023/06/17 13:14:06;;;;;;;;;;;;;;;33.61;25.23;101181.16;10529872;28;20002;-82
2023/06/17 13:19:07;;;;;;;;;;;;;;;34.42;24.88;101178.34;10529722;28;20256;-82
2023/06/17 13:24:08;;;;;;;;;;;;;;;33.95;23.98;101191.38;10530231;28;19920;-81
2023/06/17 13:29:09;;;;;;;;;;;;;;;33.87;23.84;101184.53;10530780;28;20275;-80
2023/06/17 13:34:09;;;;;;;;;;;;;;;34.38;24.46;101180.34;10529281;28;19920;-81
2023/06/17 13:39:09;;;;;;;;;;;;;;;34.50;23.22;101172.59;10512102;28;19935;-80
2023/06/17 13:44:10;;;;;;;;;;;;;;;33.75;25.13;101176.00;10472807;28;19923;-81
2023/06/17 13:49:10;;;;;;;;;;;;;;;33.73;25.75;101179.72;10529090;28;19920;-81
2023/06/17 13:54:11;;;;;;;;;;;;;;;33.72;22.94;101178.84;10511816;28;19916;-81
2023/06/17 13:59:12;;;;;;;;;;;;;;;34.02;22.20;101173.00;10528460;28;19916;-80
2023/06/17 14:04:12;;;;;;;;;;;;;;;33.60;22.83;101173.97;10528840;28;19920;-80
2023/06/17 14:09:13;;;;;;;;;;;;;;;33.30;22.36;101172.50;10526954;28;19924;-81
2023/06/17 14:14:13;;;;;;;;;;;;;;;33.54;24.58;101177.81;10529258;28;19916;-82
2023/06/17 14:19:14;;;;;;;;;;;;;;;32.70;25.83;101170.44;10528736;28;19973;-81
2023/06/17 14:24:14;;;;;;;;;;;;;;;32.45;27.16;101170.56;10528206;28;19920;-81
2023/06/17 14:29:15;;;;;;;;;;;;;;;31.86;25.52;101164.66;10509920;28;19963;-80
2023/06/17 14:34:15;;;;;;;;;;;;;;;31.44;25.43;101161.59;10510759;28;19943;-80
2023/06/17 14:39:15;;;;;;;;;;;;;;;31.14;27.02;101158.97;10479816;28;20329;-81
2023/06/17 14:44:16;;;;;;;;;;;;;;;30.89;26.58;101162.50;10526558;28;20275;-81
2023/06/17 14:49:16;;;;;;;;;;;;;;;30.60;27.64;101148.13;10508407;28;19920;-80
2023/06/17 14:54:16;;;;;;;;;;;;;;;30.53;27.94;101148.34;10528168;28;19916;-79
2023/06/17 14:59:16;;;;;;;;;;;;;;;30.06;30.08;101144.34;10526683;28;20010;-80
2023/06/17 15:04:18;;;;;;;;;;;;;;;29.77;32.76;101139.78;10509481;28;20417;-81
2023/06/17 15:09:25;;;;;;;;;;;;;;;29.69;31.31;101137.28;10507964;28;19920;-80
2023/06/17 15:14:26;;;;;;;;;;;;;;;29.84;29.18;101131.44;10478999;28;20618;-81
2023/06/17 15:19:26;;;;;;;;;;;;;;;29.43;31.42;101130.81;10519009;28;19928;-79
2023/06/17 15:24:26;;;;;;;;;;;;;;;29.36;31.90;101124.69;10497281;28;19973;-79
2023/06/17 15:29:27;;;;;;;;;;;;;;;29.13;32.18;101120.78;10499302;28;19927;-80
2023/06/17 15:34:27;;;;;;;;;;;;;;;28.84;32.59;101117.03;10525294;28;20298;-80
2023/06/17 15:39:27;;;;;;;;;;;;;;;28.75;34.60;101113.63;10522554;28;20356;-80
2023/06/17 15:44:28;;;;;;;;;;;;;;;28.76;32.83;101121.69;10525408;28;19922;-80
2023/06/17 15:49:28;;;;;;;;;;;;;;;28.60;33.33;101122.97;10522520;28;19935;-81
2023/06/17 15:54:28;;;;;;;;;;;;;;;28.54;33.81;101119.50;10521501;28;20356;-81
2023/06/17 15:59:30;;;;;;;;;;;;;;;28.67;32.16;101120.09;10492574;28;19920;-81
2023/06/17 16:04:32;;;;;;;;;;;;;;;28.33;33.49;101104.72;10505596;28;19921;-81
2023/06/17 16:09:35;;;;;;;;;;;;;;;28.24;32.22;101113.00;10510979;28;19920;-81
2023/06/17 16:14:36;;;;;;;;;;;;;;;28.29;34.13;101113.78;10506221;28;19970;-80
2023/06/17 16:19:37;;;;;;;;;;;;;;;27.98;39.64;101109.06;10480659;28;19988;-80
2023/06/17 16:24:37;;;;;;;;;;;;;;;27.89;38.69;101106.56;10511578;28;19930;-81
2023/06/17 16:29:38;;;;;;;;;;;;;;;27.95;34.19;101110.03;10515014;28;19927;-81
2023/06/17 16:34:38;;;;;;;;;;;;;;;28.05;34.26;101109.81;10535726;28;20398;-83
2023/06/17 16:39:39;;;;;;;;;;;;;;;28.09;32.72;101098.06;10501923;28;19920;-80
2023/06/17 16:44:39;;;;;;;;;;;;;;;28.12;32.88;101103.38;10532067;28;20380;-80
2023/06/17 16:49:39;;;;;;;;;;;;;;;27.98;32.09;101100.97;10530293;28;20014;-80
2023/06/17 16:54:40;;;;;;;;;;;;;;;27.65;30.85;101098.06;10531672;28;20354;-80
2023/06/17 16:59:40;;;;;;;;;;;;;;;27.34;33.36;101099.53;10512073;28;19920;-81
2023/06/17 17:04:40;;;;;;;;;;;;;;;26.98;36.24;101093.91;10530488;28;19920;-80
2023/06/17 17:09:41;;;;;;;;;;;;;;;26.61;43.85;101098.03;10511533;28;20367;-81
2023/06/17 17:14:42;;;;;;;;;;;;;;;26.15;44.63;101098.72;10500939;28;20436;-80
2023/06/17 17:19:43;;;;;;;;;;;;;;;25.71;46.88;101101.91;10549721;28;19924;-81
2023/06/17 17:24:43;;;;;;;;;;;;;;;25.25;54.41;101099.69;10528934;28;20383;-82
2023/06/17 17:29:47;;;;;;;;;;;;;;;24.86;55.00;101098.25;10512513;28;20366;-80
2023/06/17 17:34:47;;;;;;;;;;;;;;;24.61;79.60;101098.41;10508411;28;20294;-80
2023/06/17 17:39:48;;;;;;;;;;;;;;;24.44;66.17;101103.88;10510351;28;19930;-80
2023/06/17 17:44:49;;;;;;;;;;;;;;;24.27;92.67;101109.31;10511103;28;19920;-80
2023/06/17 17:49:50;;;;;;;;;;;;;;;24.00;83.39;101097.84;10527075;28;19920;-79
2023/06/17 17:54:50;;;;;;;;;;;;;;;23.84;96.25;101106.81;10504631;28;19920;-79
2023/06/17 17:59:50;;;;;;;;;;;;;;;23.73;95.21;101102.38;10485538;28;19926;-82
2023/06/17 18:04:51;;;;;;;;;;;;;;;23.64;87.28;101110.44;10502004;28;19916;-81
2023/06/17 18:09:51;;;;;;;;;;;;;;;23.52;80.36;101113.13;10497284;28;19924;-80
2023/06/17 18:14:51;;;;;;;;;;;;;;;23.24;95.13;101108.72;10480928;28;19970;-81
2023/06/17 18:19:52;;;;;;;;;;;;;;;22.81;100.00;101109.59;10497580;28;19927;-81
2023/06/17 18:24:52;;;;;;;;;;;;;;;22.34;100.00;101097.94;10511441;28;19928;-81
2023/06/17 18:29:53;;;;;;;;;;;;;;;21.92;100.00;101115.56;10509655;28;19924;-81
2023/06/17 18:34:53;;;;;;;;;;;;;;;21.56;100.00;101113.56;10508838;28;19926;-82
2023/06/17 18:39:53;;;;;;;;;;;;;;;21.37;100.00;101120.53;10490655;28;19926;-81
2023/06/17 18:44:57;;;;;;;;;;;;;;;21.26;100.00;101114.22;10501486;28;20012;-81
2023/06/17 18:49:57;;;;;;;;;;;;;;;21.09;100.00;101112.31;10513802;28;20023;-82
2023/06/17 18:54:57;;;;;;;;;;;;;;;20.94;100.00;101114.88;10509086;28;19927;-82
2023/06/17 18:59:58;;;;;;;;;;;;;;;20.80;100.00;101117.41;10526258;28;20004;-82
2023/06/17 19:05:04;;;;;;;;;;;;;;;20.64;100.00;101122.56;10509430;28;19916;-82
2023/06/17 19:10:05;;;;;;;;;;;;;;;20.50;99.94;101122.38;10512645;28;19924;-82
2023/06/17 19:15:05;;;;;;;;;;;;;;;20.33;100.00;101123.97;10525413;28;19924;-81
2023/06/17 19:20:06;;;;;;;;;;;;;;;20.15;100.00;101124.66;10505202;28;19962;-84
2023/06/17 19:25:07;;;;;;;;;;;;;;;19.93;100.00;101133.22;10508401;28;19912;-80
2023/06/17 19:30:07;;;;;;;;;;;;;;;19.69;100.00;101124.91;10525680;28;19927;-80
2023/06/17 19:35:08;;;;;;;;;;;;;;;19.44;100.00;101129.84;10508977;28;19998;-80
2023/06/17 19:40:08;;;;;;;;;;;;;;;19.23;100.00;101123.34;10524418;28;19916;-80
2023/06/17 19:45:10;;;;;;;;;;;;;;;18.96;100.00;101127.28;10503315;28;19920;-80
2023/06/17 19:50:14;;;;;;;;;;;;;;;18.78;100.00;101125.22;10525632;28;20374;-80
2023/06/17 19:55:18;;;;;;;;;;;;;;;18.59;100.00;101132.84;10523893;28;19967;-80
2023/06/17 20:00:19;;;;;;;;;;;;;;;18.44;100.00;101144.00;10525054;28;19949;-80
2023/06/17 20:05:19;;;;;;;;;;;;;;;18.31;100.00;101140.25;10524772;28;19959;-80
2023/06/17 20:10:20;;;;;;;;;;;;;;;18.14;100.00;101145.19;10522614;28;20010;-81
2023/06/17 20:15:25;;;;;;;;;;;;;;;17.99;100.00;101145.72;10496720;28;19970;-80
2023/06/17 20:20:27;;;;;;;;;;;;;;;17.87;100.00;101146.34;10522924;28;19955;-80
2023/06/17 20:25:28;;;;;;;;;;;;;;;17.81;100.00;101147.97;10500752;28;19920;-80
2023/06/17 20:30:28;;;;;;;;;;;;;;;17.72;100.00;101151.28;10522821;28;19923;-80
2023/06/17 20:35:29;;;;;;;;;;;;;;;17.58;100.00;101151.00;10524077;28;19927;-80
2023/06/17 20:40:31;;;;;;;;;;;;;;;17.41;100.00;101145.28;10523637;28;20379;-81
2023/06/17 20:45:31;;;;;;;;;;;;;;;17.29;100.00;101135.31;10525166;28;19927;-80
2023/06/17 20:50:32;;;;;;;;;;;;;;;17.20;100.00;101137.75;10503523;28;19920;-80
2023/06/17 20:55:34;;;;;;;;;;;;;;;17.16;100.00;101136.75;10506111;28;19928;-80
2023/06/17 21:00:34;;;;;;;;;;;;;;;17.11;100.00;101141.03;10505598;28;19927;-80
2023/06/17 21:05:35;;;;;;;;;;;;;;;17.05;100.00;101143.53;10505541;28;20279;-80
2023/06/17 21:10:35;;;;;;;;;;;;;;;17.00;100.00;101143.41;10530126;28;19983;-80
2023/06/17 21:15:36;;;;;;;;;;;;;;;16.87;100.00;101128.94;10513908;28;19931;-81
2023/06/17 21:20:36;;;;;;;;;;;;;;;16.80;100.00;101134.91;10529051;28;19923;-83
2023/06/17 21:25:37;;;;;;;;;;;;;;;16.69;100.00;101132.88;10531946;28;19928;-79
2023/06/17 21:30:38;;;;;;;;;;;;;;;16.56;100.00;101130.78;10529613;28;19962;-80
2023/06/17 21:35:38;;;;;;;;;;;;;;;16.42;100.00;101122.47;10546458;28;19923;-80
2023/06/17 21:40:38;;;;;;;;;;;;;;;16.47;100.00;101119.94;10501817;28;19981;-79
2023/06/17 21:45:39;;;;;;;;;;;;;;;16.54;100.00;101129.84;10523017;28;19966;-80
2023/06/17 21:50:41;;;;;;;;;;;;;;;16.58;100.00;101124.69;10485972;28;20394;-81
2023/06/17 21:55:41;;;;;;;;;;;;;;;16.65;100.00;101130.13;10520991;28;19942;-81
2023/06/17 22:00:41;;;;;;;;;;;;;;;16.72;100.00;101121.53;10543735;28;19924;-81
2023/06/17 22:05:42;;;;;;;;;;;;;;;16.76;100.00;101122.47;10546983;28;19922;-81
2023/06/17 22:10:42;;;;;;;;;;;;;;;16.77;100.00;101126.91;10529955;28;19930;-81
2023/06/17 22:15:42;;;;;;;;;;;;;;;16.77;100.00;101116.34;10529434;28;19928;-81
2023/06/17 22:20:43;;;;;;;;;;;;;;;16.70;100.00;101121.47;10546884;28;20018;-81
2023/06/17 22:25:43;;;;;;;;;;;;;;;16.71;100.00;101120.59;10505245;28;19912;-81
2023/06/17 22:30:44;;;;;;;;;;;;;;;16.70;100.00;101113.53;10492800;28;19927;-81
2023/06/17 22:35:44;;;;;;;;;;;;;;;16.68;100.00;101115.25;10507629;28;19920;-81
2023/06/17 22:40:44;;;;;;;;;;;;;;;16.67;100.00;101118.75;10475677;28;20268;-81
2023/06/17 22:45:45;;;;;;;;;;;;;;;16.63;100.00;101119.50;10508649;28;19920;-81
2023/06/17 22:50:46;;;;;;;;;;;;;;;16.70;100.00;101121.47;10562015;28;19920;-81
2023/06/17 22:55:46;;;;;;;;;;;;;;;16.73;100.00;101126.81;10492631;28;19924;-81
2023/06/17 23:00:46;;;;;;;;;;;;;;;16.81;100.00;101118.22;10486554;28;19925;-81
2023/06/17 23:05:47;;;;;;;;;;;;;;;16.84;100.00;101123.56;10508414;28;19923;-81
2023/06/17 23:10:47;;;;;;;;;;;;;;;16.84;100.00;101121.84;10527548;28;20282;-81
2023/06/17 23:15:47;;;;;;;;;;;;;;;16.86;100.00;101125.41;10482992;28;20022;-81
2023/06/17 23:20:48;;;;;;;;;;;;;;;16.88;100.00;101117.50;10527879;28;19920;-81
2023/06/17 23:25:49;;;;;;;;;;;;;;;16.82;100.00;101117.34;10498899;28;19920;-81
2023/06/17 23:30:50;;;;;;;;;;;;;;;16.78;100.00;101116.41;10525721;28;19964;-80
2023/06/17 23:35:50;;;;;;;;;;;;;;;16.74;100.00;101115.41;10506855;28;20792;-80
2023/06/17 23:40:50;;;;;;;;;;;;;;;16.62;100.00;101117.72;10527525;28;20364;-81
2023/06/17 23:45:54;;;;;;;;;;;;;;;16.41;100.00;101100.44;10506007;28;19920;-81
2023/06/17 23:50:55;;;;;;;;;;;;;;;16.20;100.00;101102.47;10523974;28;19920;-81
2023/06/17 23:55:55;;;;;;;;;;;;;;;16.00;100.00;101101.06;10501652;28;19919;-81
